createdAt,value
2023-04-08T00:01:54.313Z,100960.25
2023-04-08T00:04:22.704Z,100969.66
2023-04-08T00:06:50.965Z,100962.81
2023-04-08T00:09:20.374Z,100963.84
2023-04-08T00:11:48.766Z,100972.41
2023-04-08T00:14:16.855Z,100972.50
2023-04-08T00:16:44.832Z,100971.00
2023-04-08T00:19:13.143Z,100970.41
2023-04-08T00:21:41.111Z,100972.19
2023-04-08T00:24:09.205Z,100968.78
2023-04-08T00:26:38.819Z,100963.84
2023-04-08T00:29:06.830Z,100973.44
2023-04-08T00:31:34.880Z,100967.50
2023-04-08T00:34:03.265Z,100960.09
2023-04-08T00:36:32.362Z,100961.78
2023-04-08T00:39:00.280Z,100967.78
2023-04-08T00:41:28.756Z,100967.78
2023-04-08T00:43:58.376Z,100967.09
2023-04-08T00:46:26.849Z,100964.53
2023-04-08T00:48:55.853Z,100966.25
2023-04-08T00:51:23.953Z,100966.56
2023-04-08T00:53:51.857Z,100973.53
2023-04-08T00:56:20.124Z,100972.81
2023-04-08T00:58:49.255Z,100974.78
2023-04-08T01:01:27.092Z,100961.25
2023-04-08T01:04:03.010Z,100965.03
2023-04-08T01:06:36.499Z,100970.16
2023-04-08T01:09:08.016Z,100969.88
2023-04-08T01:11:37.217Z,100971.44
2023-04-08T01:14:10.208Z,100975.63
2023-04-08T01:16:42.213Z,100972.13
2023-04-08T01:19:16.976Z,100976.25
2023-04-08T01:21:45.399Z,100978.44
2023-04-08T01:24:21.205Z,100977.34
2023-04-08T01:26:51.261Z,100973.91
2023-04-08T01:29:20.733Z,100976.41
2023-04-08T01:31:49.721Z,100977.66
2023-04-08T01:34:19.817Z,100979.06
2023-04-08T01:36:49.867Z,100973.59
2023-04-08T01:39:20.093Z,100973.06
2023-04-08T01:41:51.692Z,100976.66
2023-04-08T01:44:21.518Z,100975.34
2023-04-08T01:46:51.324Z,100981.66
2023-04-08T01:49:20.022Z,100982.41
2023-04-08T01:51:49.585Z,100980.44
2023-04-08T01:54:18.817Z,100982.22
2023-04-08T01:56:47.724Z,100972.03
2023-04-08T01:59:19.101Z,100971.78
2023-04-08T02:01:49.261Z,100974.62
2023-04-08T02:04:17.821Z,100971.28
2023-04-08T02:06:46.940Z,100970.81
2023-04-08T02:09:15.049Z,100962.56
2023-04-08T02:11:43.288Z,100963.00
2023-04-08T02:14:11.600Z,100969.34
2023-04-08T02:16:51.439Z,100966.59
2023-04-08T02:19:25.668Z,100970.03
2023-04-08T02:21:58.986Z,100959.81
2023-04-08T02:24:28.706Z,100963.16
2023-04-08T02:26:57.906Z,100968.63
2023-04-08T02:29:27.594Z,100969.25
2023-04-08T02:31:58.192Z,100971.09
2023-04-08T02:34:27.022Z,100968.03
2023-04-08T02:36:55.243Z,100968.87
2023-04-08T02:39:23.235Z,100974.06
2023-04-08T02:41:51.566Z,100973.03
2023-04-08T02:44:24.822Z,100978.53
2023-04-08T02:46:53.172Z,100977.34
2023-04-08T02:49:22.442Z,100981.84
2023-04-08T02:51:50.411Z,100986.06
2023-04-08T02:54:18.790Z,100979.19
2023-04-08T02:56:46.697Z,100984.19
2023-04-08T02:59:14.658Z,100983.00
2023-04-08T03:01:43.855Z,100994.53
2023-04-08T03:04:12.003Z,100992.31
2023-04-08T03:06:41.271Z,100991.06
2023-04-08T03:09:09.652Z,100987.38
2023-04-08T03:11:37.539Z,100986.88
2023-04-08T03:14:05.534Z,100982.13
2023-04-08T03:16:33.882Z,100983.34
2023-04-08T03:19:01.951Z,100985.50
2023-04-08T03:21:31.703Z,100984.41
2023-04-08T03:24:01.242Z,100995.59
2023-04-08T03:26:29.212Z,100988.94
2023-04-08T03:28:57.183Z,100991.69
2023-04-08T03:31:27.276Z,100999.16
2023-04-08T03:33:55.396Z,101003.44
2023-04-08T03:36:23.505Z,100998.25
2023-04-08T03:38:51.786Z,100995.88
2023-04-08T03:41:21.416Z,100995.50
2023-04-08T03:43:49.375Z,101000.19
2023-04-08T03:46:17.654Z,101008.09
2023-04-08T03:48:45.655Z,101012.53
2023-04-08T03:51:13.691Z,101021.06
2023-04-08T03:53:41.826Z,101020.19
2023-04-08T03:56:09.893Z,101018.28
2023-04-08T03:58:39.233Z,101018.84
2023-04-08T04:01:07.552Z,101025.75
2023-04-08T04:03:35.881Z,101026.50
2023-04-08T04:06:04.048Z,101026.03
2023-04-08T04:08:31.980Z,101028.19
2023-04-08T04:11:00.381Z,101024.88
2023-04-08T04:13:28.294Z,101022.34
2023-04-08T04:15:57.995Z,101023.53
2023-04-08T04:18:26.304Z,101028.00
2023-04-08T04:20:54.291Z,101033.78
2023-04-08T04:23:24.354Z,101019.47
2023-04-08T04:25:52.999Z,101021.88
2023-04-08T04:28:20.990Z,101025.22
2023-04-08T04:30:49.204Z,101025.78
2023-04-08T04:33:18.757Z,101026.63
2023-04-08T04:35:46.773Z,101022.69
2023-04-08T04:38:14.738Z,101027.91
2023-04-08T04:40:44.271Z,101033.50
2023-04-08T04:43:12.216Z,101038.81
2023-04-08T04:45:40.629Z,101049.03
2023-04-08T04:48:08.796Z,101044.56
2023-04-08T04:50:38.114Z,101047.66
2023-04-08T04:53:06.194Z,101063.75
2023-04-08T04:55:34.514Z,101063.13
2023-04-08T04:58:02.685Z,101065.91
2023-04-08T05:00:30.694Z,101065.19
2023-04-08T05:02:59.060Z,101064.19
2023-04-08T05:05:27.112Z,101075.28
2023-04-08T05:07:56.480Z,101063.50
2023-04-08T05:10:24.985Z,101072.50
2023-04-08T05:12:52.864Z,101064.88
2023-04-08T05:15:21.439Z,101061.28
2023-04-08T05:17:49.739Z,101065.81
2023-04-08T05:20:18.014Z,101062.31
2023-04-08T05:22:46.292Z,101065.59
2023-04-08T05:25:16.144Z,101070.06
2023-04-08T05:27:44.244Z,101071.03
2023-04-08T05:30:13.031Z,101089.69
2023-04-08T05:32:41.404Z,101075.78
2023-04-08T05:35:10.605Z,101075.09
2023-04-08T05:37:38.607Z,101076.59
2023-04-08T05:40:08.206Z,101078.94
2023-04-08T05:42:37.442Z,101093.69
2023-04-08T05:45:06.332Z,101093.06
2023-04-08T05:47:34.569Z,101091.88
2023-04-08T05:50:02.598Z,101097.53
2023-04-08T05:52:30.563Z,101097.13
2023-04-08T05:54:58.749Z,101093.50
2023-04-08T05:57:26.738Z,101098.66
2023-04-08T05:59:55.986Z,101100.00
2023-04-08T06:02:24.220Z,101106.69
2023-04-08T06:04:52.568Z,101108.56
2023-04-08T06:07:20.495Z,101108.50
2023-04-08T06:09:48.409Z,101107.97
2023-04-08T06:12:16.661Z,101107.56
2023-04-08T06:14:44.652Z,101113.19
2023-04-08T06:17:13.993Z,101115.59
2023-04-08T06:19:42.261Z,101110.94
2023-04-08T06:22:10.312Z,101107.03
2023-04-08T06:24:38.225Z,101119.81
2023-04-08T06:27:06.647Z,101107.81
2023-04-08T06:29:37.227Z,101116.06
2023-04-08T06:32:06.200Z,101131.47
2023-04-08T06:34:35.831Z,101135.75
2023-04-08T06:37:03.869Z,101126.59
2023-04-08T06:39:31.849Z,101137.28
2023-04-08T06:42:00.502Z,101134.69
2023-04-08T06:44:28.634Z,101132.41
2023-04-08T06:46:56.951Z,101138.81
2023-04-08T06:49:27.092Z,101142.06
2023-04-08T06:51:56.452Z,101141.38
2023-04-08T06:54:24.435Z,101138.87
2023-04-08T06:56:52.624Z,101158.56
2023-04-08T06:59:20.703Z,101165.81
2023-04-08T07:01:48.719Z,101169.47
2023-04-08T07:04:17.020Z,101162.31
2023-04-08T07:06:45.800Z,101166.28
2023-04-08T07:09:15.042Z,101171.66
2023-04-08T07:11:43.218Z,101167.06
2023-04-08T07:14:11.172Z,101173.09
2023-04-08T07:16:39.145Z,101165.25
2023-04-08T07:19:07.329Z,101177.78
2023-04-08T07:21:35.639Z,101181.81
2023-04-08T07:24:03.623Z,101180.31
2023-04-08T07:26:33.174Z,101176.19
2023-04-08T07:29:01.115Z,101179.25
2023-04-08T07:31:29.231Z,101175.81
2023-04-08T07:33:57.627Z,101180.66
2023-04-08T07:36:26.522Z,101179.56
2023-04-08T07:38:54.766Z,101182.59
2023-04-08T07:41:22.981Z,101175.87
2023-04-08T07:43:54.466Z,101169.59
2023-04-08T07:46:22.930Z,101179.50
2023-04-08T07:48:52.359Z,101169.19
2023-04-08T07:51:20.969Z,101171.12
2023-04-08T07:53:49.629Z,101178.59
2023-04-08T07:56:18.676Z,101186.91
2023-04-08T07:58:48.700Z,101194.62
2023-04-08T08:01:21.246Z,101199.28
2023-04-08T08:03:50.095Z,101204.50
2023-04-08T08:06:18.342Z,101200.66
2023-04-08T08:08:46.316Z,101200.53
2023-04-08T08:11:14.602Z,101202.34
2023-04-08T08:13:42.541Z,101213.41
2023-04-08T08:16:11.882Z,101210.50
2023-04-08T08:18:42.375Z,101211.38
2023-04-08T08:21:10.575Z,101214.31
2023-04-08T08:23:38.759Z,101220.22
2023-04-08T08:26:10.015Z,101219.13
2023-04-08T08:28:38.499Z,101217.53
2023-04-08T08:31:07.077Z,101226.84
2023-04-08T08:33:35.525Z,101235.03
2023-04-08T08:36:07.079Z,101231.00
2023-04-08T08:38:35.521Z,101227.41
2023-04-08T08:41:04.651Z,101239.75
2023-04-08T08:43:33.496Z,101234.16
2023-04-08T08:46:02.167Z,101239.41
2023-04-08T08:48:30.502Z,101229.97
2023-04-08T08:50:58.803Z,101245.94
2023-04-08T08:53:33.634Z,101253.19
2023-04-08T08:56:18.000Z,101251.09
2023-04-08T08:58:47.662Z,101249.03
2023-04-08T09:01:33.707Z,101262.09
2023-04-08T09:04:14.411Z,101256.19
2023-04-08T09:06:42.724Z,101262.47
2023-04-08T09:09:12.417Z,101268.56
2023-04-08T09:11:41.942Z,101266.16
2023-04-08T09:14:23.552Z,101269.16
2023-04-08T09:16:52.123Z,101266.16
2023-04-08T09:19:20.781Z,101270.81
2023-04-08T09:22:06.430Z,101264.53
2023-04-08T09:24:37.358Z,101277.28
2023-04-08T09:27:06.094Z,101271.37
2023-04-08T09:29:38.311Z,101270.22
2023-04-08T09:32:07.870Z,101282.31
2023-04-08T09:34:36.763Z,101273.81
2023-04-08T09:37:04.814Z,101279.84
2023-04-08T09:39:32.826Z,101284.75
2023-04-08T09:42:09.986Z,101278.56
2023-04-08T09:44:39.577Z,101283.22
2023-04-08T09:47:13.716Z,101286.00
2023-04-08T09:49:47.717Z,101273.91
2023-04-08T09:52:21.858Z,101284.28
2023-04-08T09:54:55.668Z,101278.44
2023-04-08T09:57:33.631Z,101287.50
2023-04-08T10:00:06.620Z,101279.03
2023-04-08T10:02:50.554Z,101285.13
2023-04-08T10:05:19.549Z,101285.53
2023-04-08T10:07:47.605Z,101284.91
2023-04-08T10:10:16.077Z,101286.78
2023-04-08T10:12:46.147Z,101292.59
2023-04-08T10:15:24.878Z,101289.16
2023-04-08T10:17:53.453Z,101292.91
2023-04-08T10:20:44.834Z,101288.31
2023-04-08T10:23:14.511Z,101289.19
2023-04-08T10:25:45.407Z,101299.91
2023-04-08T10:28:27.660Z,101287.16
2023-04-08T10:30:57.477Z,101289.75
2023-04-08T10:33:34.542Z,101297.78
2023-04-08T10:36:11.342Z,101296.91
2023-04-08T10:38:39.873Z,101292.47
2023-04-08T10:41:08.012Z,101293.59
2023-04-08T10:43:38.287Z,101293.91
2023-04-08T10:46:06.908Z,101291.22
2023-04-08T10:48:34.926Z,101287.28
2023-04-08T10:51:04.834Z,101293.91
2023-04-08T10:53:34.825Z,101284.56
2023-04-08T10:56:07.573Z,101279.72
2023-04-08T10:58:37.479Z,101286.50
2023-04-08T11:01:09.618Z,101293.44
2023-04-08T11:03:38.230Z,101290.00
2023-04-08T11:06:07.573Z,101290.87
2023-04-08T11:08:36.726Z,101289.84
2023-04-08T11:11:09.206Z,101284.16
2023-04-08T11:13:44.456Z,101286.94
2023-04-08T11:16:21.862Z,101285.75
2023-04-08T11:18:51.385Z,101285.53
2023-04-08T11:21:19.649Z,101296.25
2023-04-08T11:23:51.099Z,101286.62
2023-04-08T11:26:21.140Z,101284.69
2023-04-08T11:28:52.063Z,101289.03
2023-04-08T11:31:24.130Z,101285.84
2023-04-08T11:33:55.452Z,101284.16
2023-04-08T11:36:23.722Z,101286.41
2023-04-08T11:38:54.458Z,101292.72
2023-04-08T11:41:23.041Z,101289.50
2023-04-08T11:43:58.696Z,101296.03
2023-04-08T11:46:26.939Z,101288.34
2023-04-08T11:49:00.537Z,101297.53
2023-04-08T11:51:29.070Z,101290.03
2023-04-08T11:53:57.899Z,101294.97
2023-04-08T11:56:26.405Z,101283.63
2023-04-08T11:58:54.472Z,101299.25
2023-04-08T12:01:24.361Z,101292.72
2023-04-08T12:03:57.480Z,101292.00
2023-04-08T12:06:27.682Z,101292.50
2023-04-08T12:08:57.089Z,101294.25
2023-04-08T12:11:25.964Z,101291.78
2023-04-08T12:13:54.259Z,101292.62
2023-04-08T12:16:24.022Z,101303.94
2023-04-08T12:18:52.174Z,101289.19
2023-04-08T12:21:20.126Z,101295.38
2023-04-08T12:23:48.618Z,101296.78
2023-04-08T12:26:17.774Z,101305.59
2023-04-08T12:28:45.932Z,101295.22
2023-04-08T12:31:14.236Z,101298.84
2023-04-08T12:33:43.819Z,101299.22
2023-04-08T12:36:13.665Z,101297.69
2023-04-08T12:38:42.165Z,101298.91
2023-04-08T12:41:10.103Z,101296.06
2023-04-08T12:43:39.121Z,101301.03
2023-04-08T12:46:07.579Z,101300.16
2023-04-08T12:48:35.627Z,101291.03
2023-04-08T12:51:05.415Z,101293.16
2023-04-08T12:53:33.680Z,101292.59
2023-04-08T12:56:01.620Z,101293.09
2023-04-08T12:58:29.627Z,101297.84
2023-04-08T13:00:57.909Z,101294.34
2023-04-08T13:03:28.297Z,101290.25
2023-04-08T13:05:56.652Z,101297.13
2023-04-08T13:08:26.339Z,101295.41
2023-04-08T13:10:54.298Z,101296.25
2023-04-08T13:13:22.257Z,101300.09
2023-04-08T13:15:50.919Z,101292.84
2023-04-08T13:18:18.898Z,101296.03
2023-04-08T13:20:46.982Z,101293.12
2023-04-08T13:23:17.911Z,101290.50
2023-04-08T13:25:47.326Z,101298.37
2023-04-08T13:28:15.662Z,101297.72
2023-04-08T13:30:43.605Z,101300.41
2023-04-08T13:33:14.560Z,101294.97
2023-04-08T13:35:42.859Z,101300.91
2023-04-08T13:38:11.433Z,101292.88
2023-04-08T13:40:39.723Z,101306.12
2023-04-08T13:43:09.679Z,101300.16
2023-04-08T13:45:37.800Z,101300.53
2023-04-08T13:48:06.151Z,101294.06
2023-04-08T13:50:34.504Z,101300.91
2023-04-08T13:53:02.590Z,101299.22
2023-04-08T13:55:30.724Z,101294.87
2023-04-08T13:57:59.014Z,101297.41
2023-04-08T14:00:28.373Z,101297.59
2023-04-08T14:02:56.776Z,101297.97
2023-04-08T14:05:24.841Z,101299.47
2023-04-08T14:07:54.446Z,101296.88
2023-04-08T14:10:22.796Z,101293.47
2023-04-08T14:12:50.794Z,101300.12
2023-04-08T14:15:18.944Z,101299.59
2023-04-08T14:17:48.688Z,101293.69
2023-04-08T14:20:16.769Z,101297.87
2023-04-08T14:22:44.865Z,101302.91
2023-04-08T14:25:13.160Z,101298.06
2023-04-08T14:27:54.701Z,101295.34
2023-04-08T14:30:26.895Z,101301.91
2023-04-08T14:32:57.295Z,101302.28
2023-04-08T14:35:25.653Z,101301.16
2023-04-08T14:37:53.728Z,101305.28
2023-04-08T14:40:21.934Z,101301.87
2023-04-08T14:42:50.774Z,101302.66
2023-04-08T14:45:18.768Z,101295.16
2023-04-08T14:47:47.113Z,101307.53
2023-04-08T14:50:17.222Z,101295.47
2023-04-08T14:52:48.496Z,101301.69
2023-04-08T14:55:17.361Z,101301.97
2023-04-08T14:57:45.374Z,101294.06
2023-04-08T15:00:14.485Z,101302.56
2023-04-08T15:02:42.908Z,101305.03
2023-04-08T15:05:11.048Z,101304.84
2023-04-08T15:07:40.655Z,101303.28
2023-04-08T15:10:09.846Z,101299.00
2023-04-08T15:12:37.877Z,101299.16
2023-04-08T15:15:06.958Z,101302.94
2023-04-08T15:17:35.277Z,101306.69
2023-04-08T15:20:03.417Z,101308.00
2023-04-08T15:22:31.603Z,101316.38
2023-04-08T15:25:01.718Z,101307.78
2023-04-08T15:27:29.771Z,101309.72
2023-04-08T15:29:57.812Z,101311.00
2023-04-08T15:32:26.339Z,101305.22
2023-04-08T15:34:54.451Z,101304.00
2023-04-08T15:37:23.413Z,101302.78
2023-04-08T15:39:53.843Z,101309.47
2023-04-08T15:42:23.472Z,101308.97
2023-04-08T15:44:51.762Z,101304.50
2023-04-08T15:47:22.194Z,101308.97
2023-04-08T15:49:53.134Z,101309.78
2023-04-08T15:52:21.410Z,101315.59
2023-04-08T15:54:49.306Z,101311.97
2023-04-08T15:57:17.324Z,101306.62
2023-04-08T15:59:46.902Z,101307.41
2023-04-08T16:02:14.949Z,101311.87
2023-04-08T16:04:43.332Z,101309.31
2023-04-08T16:07:11.601Z,101311.00
2023-04-08T16:09:39.804Z,101316.94
2023-04-08T16:12:08.132Z,101321.47
2023-04-08T16:14:36.111Z,101317.53
2023-04-08T16:17:06.363Z,101318.59
2023-04-08T16:19:34.651Z,101326.59
2023-04-08T16:22:02.614Z,101319.94
2023-04-08T16:24:31.035Z,101318.22
2023-04-08T16:26:59.422Z,101321.13
2023-04-08T16:29:27.779Z,101325.28
2023-04-08T16:31:56.159Z,101330.78
2023-04-08T16:34:25.909Z,101331.09
2023-04-08T16:36:53.940Z,101330.84
2023-04-08T16:39:22.026Z,101333.25
2023-04-08T16:41:50.282Z,101342.09
2023-04-08T16:44:18.348Z,101336.97
2023-04-08T16:46:47.163Z,101338.44
2023-04-08T16:49:17.602Z,101344.00
2023-04-08T16:51:47.672Z,101349.00
2023-04-08T16:54:19.175Z,101343.19
2023-04-08T16:56:47.254Z,101348.87
2023-04-08T16:59:15.639Z,101350.00
2023-04-08T17:01:44.690Z,101357.19
2023-04-08T17:04:12.655Z,101362.97
2023-04-08T17:06:42.210Z,101362.53
2023-04-08T17:09:11.595Z,101371.12
2023-04-08T17:11:39.643Z,101367.94
2023-04-08T17:14:07.954Z,101366.88
2023-04-08T17:16:35.867Z,101373.19
2023-04-08T17:19:04.015Z,101375.00
2023-04-08T17:21:32.554Z,101386.66
2023-04-08T17:24:00.543Z,101389.75
2023-04-08T17:26:30.067Z,101397.84
2023-04-08T17:28:58.477Z,101398.06
2023-04-08T17:31:27.639Z,101397.03
2023-04-08T17:33:55.693Z,101406.19
2023-04-08T17:36:24.124Z,101412.22
2023-04-08T17:38:52.148Z,101404.62
2023-04-08T17:41:38.432Z,101409.00
2023-04-08T17:44:09.638Z,101408.16
2023-04-08T17:46:37.799Z,101410.09
2023-04-08T17:49:05.956Z,101421.34
2023-04-08T17:51:34.377Z,101419.97
2023-04-08T17:54:02.394Z,101426.75
2023-04-08T17:56:30.494Z,101429.00
2023-04-08T17:58:58.741Z,101435.09
2023-04-08T18:01:28.636Z,101434.19
2023-04-08T18:03:57.144Z,101437.41
2023-04-08T18:06:26.048Z,101441.28
2023-04-08T18:08:54.851Z,101447.16
2023-04-08T18:11:26.631Z,101456.81
2023-04-08T18:13:54.752Z,101461.53
2023-04-08T18:16:23.256Z,101468.19
2023-04-08T18:18:53.046Z,101467.66
2023-04-08T18:21:22.092Z,101461.81
2023-04-08T18:23:51.077Z,101470.94
2023-04-08T18:26:19.646Z,101481.94
2023-04-08T18:28:47.931Z,101483.84
2023-04-08T18:31:16.678Z,101482.16
2023-04-08T18:33:45.077Z,101490.53
2023-04-08T18:36:14.841Z,101490.44
2023-04-08T18:38:44.720Z,101491.84
2023-04-08T18:41:13.395Z,101499.47
2023-04-08T18:43:41.578Z,101498.13
2023-04-08T18:46:09.587Z,101504.69
2023-04-08T18:48:37.823Z,101503.84
2023-04-08T18:51:05.788Z,101511.91
2023-04-08T18:53:35.250Z,101509.25
2023-04-08T18:56:03.405Z,101515.50
2023-04-08T18:58:32.063Z,101513.06
2023-04-08T19:01:00.164Z,101518.44
2023-04-08T19:03:28.588Z,101524.09
2023-04-08T19:05:56.564Z,101517.50
2023-04-08T19:08:24.621Z,101517.03
2023-04-08T19:10:54.356Z,101519.03
2023-04-08T19:13:23.919Z,101521.06
2023-04-08T19:15:52.276Z,101518.66
2023-04-08T19:18:20.427Z,101510.94
2023-04-08T19:20:48.504Z,101515.47
2023-04-08T19:23:18.848Z,101505.34
2023-04-08T19:25:47.360Z,101511.37
2023-04-08T19:28:16.665Z,101513.59
2023-04-08T19:30:44.794Z,101517.28
2023-04-08T19:33:12.727Z,101512.75
2023-04-08T19:35:40.937Z,101507.28
2023-04-08T19:38:09.220Z,101505.34
2023-04-08T19:40:37.203Z,101504.63
2023-04-08T19:43:05.194Z,101510.66
2023-04-08T19:45:34.718Z,101510.44
2023-04-08T19:48:02.767Z,101516.41
2023-04-08T19:50:30.945Z,101512.81
2023-04-08T19:52:59.139Z,101510.09
2023-04-08T19:55:27.630Z,101516.97
2023-04-08T19:57:55.701Z,101513.25
2023-04-08T20:00:25.058Z,101514.25
2023-04-08T20:02:55.105Z,101511.66
2023-04-08T20:05:23.332Z,101525.59
2023-04-08T20:07:51.424Z,101529.88
2023-04-08T20:10:20.626Z,101526.00
2023-04-08T20:12:48.642Z,101520.56
2023-04-08T20:15:24.772Z,101531.97
2023-04-08T20:17:55.451Z,101529.31
2023-04-08T20:20:24.057Z,101526.47
2023-04-08T20:22:52.580Z,101529.63
2023-04-08T20:25:21.104Z,101535.22
2023-04-08T20:27:49.193Z,101545.00
2023-04-08T20:30:17.232Z,101535.06
2023-04-08T20:32:45.503Z,101532.63
2023-04-08T20:35:14.786Z,101534.28
2023-04-08T20:37:42.819Z,101538.66
2023-04-08T20:40:11.469Z,101542.91
2023-04-08T20:42:39.590Z,101540.62
2023-04-08T20:45:08.857Z,101538.97
2023-04-08T20:47:37.288Z,101545.94
2023-04-08T20:50:06.058Z,101533.72
2023-04-08T20:52:35.419Z,101538.03
2023-04-08T20:55:03.670Z,101539.97
2023-04-08T20:57:31.732Z,101541.69
2023-04-08T20:59:59.830Z,101546.09
2023-04-08T21:02:28.518Z,101551.59
2023-04-08T21:04:56.697Z,101540.78
2023-04-08T21:07:26.221Z,101542.41
2023-04-08T21:09:55.753Z,101544.28
2023-04-08T21:12:23.935Z,101543.56
2023-04-08T21:14:51.970Z,101539.19
2023-04-08T21:17:20.292Z,101542.81
2023-04-08T21:19:48.281Z,101540.53
2023-04-08T21:22:17.706Z,101547.34
2023-04-08T21:24:46.090Z,101541.84
2023-04-08T21:27:15.485Z,101538.13
2023-04-08T21:29:43.473Z,101535.37
2023-04-08T21:32:11.956Z,101538.13
2023-04-08T21:34:40.001Z,101542.81
2023-04-08T21:37:07.924Z,101532.84
2023-04-08T21:39:36.238Z,101545.28
2023-04-08T21:42:04.296Z,101544.63
2023-04-08T21:44:33.740Z,101538.25
2023-04-08T21:47:02.263Z,101550.59
2023-04-08T21:49:30.717Z,101536.38
2023-04-08T21:51:58.723Z,101544.78
2023-04-08T21:54:26.977Z,101543.34
2023-04-08T21:56:54.859Z,101552.00
2023-04-08T21:59:22.736Z,101552.75
2023-04-08T22:01:52.443Z,101551.66
2023-04-08T22:04:23.341Z,101553.34
2023-04-08T22:06:51.634Z,101550.94
2023-04-08T22:09:19.947Z,101543.69
2023-04-08T22:11:48.182Z,101554.25
2023-04-08T22:14:17.423Z,101550.66
2023-04-08T22:16:45.713Z,101540.53
2023-04-08T22:19:15.506Z,101539.91
2023-04-08T22:21:43.413Z,101542.13
2023-04-08T22:24:11.452Z,101545.72
2023-04-08T22:26:39.798Z,101541.53
2023-04-08T22:29:07.840Z,101544.63
2023-04-08T22:31:35.998Z,101544.97
2023-04-08T22:34:04.299Z,101538.28
2023-04-08T22:36:33.769Z,101540.38
2023-04-08T22:39:01.797Z,101544.94
2023-04-08T22:41:30.131Z,101541.63
2023-04-08T22:43:58.220Z,101540.91
2023-04-08T22:46:26.614Z,101539.31
2023-04-08T22:48:55.154Z,101537.66
2023-04-08T22:51:23.447Z,101538.69
2023-04-08T22:53:52.855Z,101535.34
2023-04-08T22:56:21.494Z,101535.63
2023-04-08T22:58:49.597Z,101537.69
2023-04-08T23:01:20.979Z,101543.38
2023-04-08T23:03:49.853Z,101545.50
2023-04-08T23:06:18.035Z,101544.16
2023-04-08T23:08:46.104Z,101546.28
2023-04-08T23:11:15.733Z,101547.69
2023-04-08T23:13:43.699Z,101549.13
2023-04-08T23:16:12.651Z,101553.09
2023-04-08T23:18:40.885Z,101550.88
2023-04-08T23:21:08.866Z,101552.97
2023-04-08T23:23:36.868Z,101556.81
2023-04-08T23:26:05.436Z,101556.25
2023-04-08T23:28:34.655Z,101559.16
2023-04-08T23:31:05.108Z,101563.75
2023-04-08T23:33:33.492Z,101560.53
2023-04-08T23:36:01.588Z,101564.28
2023-04-08T23:38:29.554Z,101567.09
2023-04-08T23:40:57.848Z,101569.13
2023-04-08T23:43:25.924Z,101573.78
2023-04-08T23:45:55.392Z,101566.97
2023-04-08T23:48:23.638Z,101565.44
2023-04-08T23:50:52.439Z,101564.72
2023-04-08T23:53:21.097Z,101565.81
2023-04-08T23:55:49.366Z,101566.03
2023-04-08T23:58:17.437Z,101560.94
